createdAt,value
2018-02-13T00:00:40.572Z,2.10
2018-02-13T00:03:06.817Z,2.10
2018-02-13T00:05:33.052Z,2.00
2018-02-13T00:07:59.268Z,2.00
2018-02-13T00:10:25.548Z,2.00
2018-02-13T00:12:52.133Z,1.90
2018-02-13T00:15:19.120Z,1.80
2018-02-13T00:17:45.344Z,1.80
2018-02-13T00:20:11.597Z,1.90
2018-02-13T00:22:47.117Z,2.00
2018-02-13T00:25:14.108Z,1.90
2018-02-13T00:27:40.479Z,1.90
2018-02-13T00:30:06.832Z,1.90
2018-02-13T00:32:34.045Z,2.00
2018-02-13T00:35:00.331Z,2.00
2018-02-13T00:37:27.465Z,1.90
2018-02-13T00:39:53.773Z,1.90
2018-02-13T00:42:19.991Z,2.00
2018-02-13T00:44:46.222Z,2.00
2018-02-13T00:47:12.516Z,1.90
2018-02-13T00:49:38.808Z,1.80
2018-02-13T00:52:05.044Z,1.90
2018-02-13T00:54:31.241Z,1.80
2018-02-13T00:56:58.192Z,1.80
2018-02-13T00:59:24.519Z,1.90
2018-02-13T01:01:50.785Z,1.80
2018-02-13T01:04:17.060Z,1.80
2018-02-13T01:06:43.333Z,1.80
2018-02-13T01:09:09.554Z,1.70
2018-02-13T01:11:35.778Z,1.70
2018-02-13T01:14:02.021Z,1.70
2018-02-13T01:16:28.258Z,1.70
2018-02-13T01:18:55.235Z,1.70
2018-02-13T01:21:21.461Z,1.60
2018-02-13T01:23:47.717Z,1.70
2018-02-13T01:26:13.951Z,1.70
2018-02-13T01:28:40.160Z,1.70
2018-02-13T01:31:06.368Z,1.60
2018-02-13T01:33:33.389Z,1.60
2018-02-13T01:35:59.630Z,1.60
2018-02-13T01:38:25.907Z,1.60
2018-02-13T01:40:52.151Z,1.50
2018-02-13T01:43:18.366Z,1.50
2018-02-13T01:45:44.595Z,1.50
2018-02-13T01:48:14.168Z,1.50
2018-02-13T01:50:41.134Z,1.50
2018-02-13T01:53:07.409Z,1.50
2018-02-13T01:55:33.649Z,1.60
2018-02-13T01:57:59.892Z,1.50
2018-02-13T02:00:26.131Z,1.50
2018-02-13T02:02:52.362Z,1.40
2018-02-13T02:05:18.588Z,1.50
2018-02-13T02:07:44.828Z,1.60
2018-02-13T02:10:11.065Z,1.00
2018-02-13T02:12:37.395Z,1.40
2018-02-13T02:15:04.387Z,1.40
2018-02-13T02:17:30.628Z,1.40
2018-02-13T02:19:56.883Z,1.20
2018-02-13T02:22:23.080Z,1.30
2018-02-13T02:24:50.055Z,1.30
2018-02-13T02:27:16.286Z,0.90
2018-02-13T02:29:42.536Z,1.20
2018-02-13T02:32:08.757Z,1.30
2018-02-13T02:34:35.025Z,1.30
2018-02-13T02:37:01.254Z,1.30
2018-02-13T02:39:27.532Z,1.30
2018-02-13T02:41:53.789Z,1.20
2018-02-13T02:44:21.338Z,1.40
2018-02-13T02:46:47.718Z,1.20
2018-02-13T02:49:13.968Z,1.30
2018-02-13T02:51:41.366Z,1.40
2018-02-13T02:54:07.588Z,1.40
2018-02-13T02:56:34.595Z,1.40
2018-02-13T02:59:00.808Z,1.30
2018-02-13T03:01:27.071Z,1.30
2018-02-13T03:03:53.275Z,1.30
2018-02-13T03:06:19.506Z,1.40
2018-02-13T03:08:45.725Z,1.40
2018-02-13T03:11:11.992Z,1.80
2018-02-13T03:13:38.965Z,1.40
2018-02-13T03:16:05.216Z,1.40
2018-02-13T03:18:33.141Z,1.40
2018-02-13T03:20:59.364Z,1.60
2018-02-13T03:23:25.590Z,1.40
2018-02-13T03:25:51.808Z,1.40
2018-02-13T03:28:18.044Z,1.50
2018-02-13T03:30:44.996Z,1.30
2018-02-13T03:33:11.956Z,1.40
2018-02-13T03:35:38.924Z,1.50
2018-02-13T03:38:06.019Z,1.50
2018-02-13T03:40:32.274Z,1.50
2018-02-13T03:42:58.535Z,1.40
2018-02-13T03:45:24.765Z,1.20
2018-02-13T03:47:51.749Z,1.30
2018-02-13T03:50:18.715Z,1.30
2018-02-13T03:52:44.943Z,1.30
2018-02-13T03:55:11.193Z,1.40
2018-02-13T03:57:37.583Z,1.30
2018-02-13T04:00:04.013Z,1.20
2018-02-13T04:02:30.257Z,1.20
2018-02-13T04:04:56.543Z,1.30
2018-02-13T04:07:22.715Z,1.50
2018-02-13T04:09:49.025Z,1.40
2018-02-13T04:12:16.068Z,1.30
2018-02-13T04:14:42.307Z,1.30
2018-02-13T04:17:08.536Z,1.30
2018-02-13T04:19:34.778Z,1.30
2018-02-13T04:22:01.759Z,1.50
2018-02-13T04:24:28.772Z,1.40
2018-02-13T04:26:55.026Z,1.40
2018-02-13T04:29:21.252Z,1.30
2018-02-13T04:31:47.614Z,1.70
2018-02-13T04:34:13.864Z,1.20
2018-02-13T04:36:40.104Z,1.20
2018-02-13T04:39:06.336Z,1.30
2018-02-13T04:41:32.666Z,1.30
2018-02-13T04:43:58.890Z,1.30
2018-02-13T04:46:25.137Z,1.10
2018-02-13T04:48:52.085Z,1.20
2018-02-13T04:51:18.332Z,1.20
2018-02-13T04:53:44.616Z,1.20
2018-02-13T04:56:10.867Z,1.20
2018-02-13T04:58:37.156Z,1.30
2018-02-13T05:01:03.740Z,1.20
2018-02-13T05:03:30.084Z,1.30
2018-02-13T05:05:56.312Z,1.20
2018-02-13T05:08:22.572Z,1.30
2018-02-13T05:10:48.804Z,1.30
2018-02-13T05:13:15.044Z,1.40
2018-02-13T05:15:41.281Z,1.40
2018-02-13T05:18:07.492Z,1.10
2018-02-13T05:20:33.765Z,1.20
2018-02-13T05:23:00.001Z,1.20
2018-02-13T05:25:26.228Z,1.20
2018-02-13T05:27:52.463Z,1.20
2018-02-13T05:30:18.703Z,1.20
2018-02-13T05:32:44.930Z,1.10
2018-02-13T05:35:11.149Z,1.10
2018-02-13T05:37:38.220Z,1.30
2018-02-13T05:40:04.540Z,1.40
2018-02-13T05:42:30.756Z,1.30
2018-02-13T05:44:56.979Z,1.30
2018-02-13T05:47:23.197Z,1.20
2018-02-13T05:49:49.453Z,1.60
2018-02-13T05:52:16.399Z,1.20
2018-02-13T05:54:43.356Z,1.30
2018-02-13T05:57:09.628Z,1.30
2018-02-13T05:59:35.864Z,1.30
2018-02-13T06:02:02.117Z,1.30
2018-02-13T06:04:28.350Z,1.30
2018-02-13T06:06:54.617Z,1.30
2018-02-13T06:09:20.852Z,1.10
2018-02-13T06:11:47.100Z,1.40
2018-02-13T06:14:13.304Z,1.40
2018-02-13T06:16:39.552Z,1.30
2018-02-13T06:19:05.808Z,1.30
2018-02-13T06:21:32.035Z,1.30
2018-02-13T06:23:58.284Z,1.40
2018-02-13T06:26:25.324Z,1.40
2018-02-13T06:28:51.560Z,1.40
2018-02-13T06:31:17.786Z,1.50
2018-02-13T06:33:44.056Z,1.40
2018-02-13T06:36:10.295Z,1.50
2018-02-13T06:38:36.523Z,1.40
2018-02-13T06:41:02.753Z,1.30
2018-02-13T06:43:29.764Z,1.30
2018-02-13T06:45:56.052Z,1.30
2018-02-13T06:48:22.318Z,1.40
2018-02-13T06:50:48.943Z,1.30
2018-02-13T06:53:15.176Z,1.30
2018-02-13T06:55:42.165Z,1.20
2018-02-13T06:58:08.489Z,1.20
2018-02-13T07:00:34.817Z,1.20
2018-02-13T07:03:01.794Z,1.20
2018-02-13T07:05:28.205Z,1.20
2018-02-13T07:07:54.528Z,1.20
2018-02-13T07:10:20.800Z,1.10
2018-02-13T07:12:47.015Z,1.20
2018-02-13T07:15:13.336Z,1.30
2018-02-13T07:17:40.325Z,1.40
2018-02-13T07:20:07.332Z,1.30
2018-02-13T07:22:33.552Z,1.40
2018-02-13T07:25:00.621Z,1.50
2018-02-13T07:27:27.590Z,1.40
2018-02-13T07:29:53.876Z,1.40
2018-02-13T07:32:20.128Z,1.40
2018-02-13T07:34:46.503Z,1.50
2018-02-13T07:37:12.772Z,1.60
2018-02-13T07:39:39.066Z,1.70
2018-02-13T07:42:06.073Z,1.90
2018-02-13T07:44:32.320Z,1.90
2018-02-13T07:46:58.668Z,2.00
2018-02-13T07:49:25.652Z,1.90
2018-02-13T07:51:52.648Z,2.10
2018-02-13T07:54:19.609Z,2.10
2018-02-13T07:56:45.859Z,2.10
2018-02-13T07:59:12.113Z,2.00
2018-02-13T08:01:38.380Z,2.20
2018-02-13T08:04:04.592Z,2.40
2018-02-13T08:06:30.873Z,2.30
2018-02-13T08:08:57.855Z,2.50
2018-02-13T08:11:24.830Z,2.40
2018-02-13T08:13:51.261Z,2.40
2018-02-13T08:16:17.529Z,2.50
2018-02-13T08:18:43.781Z,2.60
2018-02-13T08:21:10.004Z,2.60
2018-02-13T08:23:42.561Z,2.70
2018-02-13T08:26:08.836Z,2.80
2018-02-13T08:28:35.129Z,2.80
2018-02-13T08:31:01.413Z,2.90
2018-02-13T08:33:28.800Z,2.90
2018-02-13T08:35:55.020Z,2.90
2018-02-13T08:38:22.103Z,3.00
2018-02-13T08:40:49.479Z,3.00
2018-02-13T08:43:15.722Z,3.10
2018-02-13T08:45:42.104Z,3.20
2018-02-13T08:48:09.085Z,3.30
2018-02-13T08:50:36.070Z,3.30
2018-02-13T08:53:02.440Z,3.20
2018-02-13T08:55:28.740Z,3.30
2018-02-13T08:57:54.955Z,3.30
2018-02-13T09:00:21.236Z,3.50
2018-02-13T09:02:49.250Z,3.60
2018-02-13T09:05:15.477Z,3.50
2018-02-13T09:07:41.722Z,4.00
2018-02-13T09:10:07.937Z,3.80
2018-02-13T09:12:34.164Z,4.10
2018-02-13T09:15:01.166Z,5.10
2018-02-13T09:17:27.404Z,5.00
2018-02-13T09:19:53.665Z,5.50
2018-02-13T09:22:23.843Z,6.10
2018-02-13T09:24:50.107Z,6.50
2018-02-13T09:27:16.349Z,6.60
2018-02-13T09:29:42.584Z,6.70
2018-02-13T09:32:08.865Z,6.70
2018-02-13T09:34:35.123Z,6.40
2018-02-13T09:37:01.368Z,6.30
2018-02-13T09:39:27.592Z,5.90
2018-02-13T09:41:58.097Z,5.70
2018-02-13T09:44:24.319Z,5.50
2018-02-13T09:46:50.560Z,5.10
2018-02-13T09:49:16.781Z,5.20
2018-02-13T09:51:43.034Z,5.10
2018-02-13T09:54:09.288Z,5.20
2018-02-13T09:56:35.518Z,5.30
2018-02-13T09:59:01.751Z,5.10
2018-02-13T10:01:29.597Z,5.20
2018-02-13T10:03:55.846Z,5.40
2018-02-13T10:06:22.133Z,5.30
2018-02-13T10:08:48.372Z,5.40
2018-02-13T10:11:14.658Z,5.70
2018-02-13T10:13:40.924Z,5.90
2018-02-13T10:16:07.194Z,6.00
2018-02-13T10:18:33.441Z,6.30
2018-02-13T10:21:01.613Z,7.20
2018-02-13T10:23:32.121Z,7.50
2018-02-13T10:25:58.344Z,7.90
2018-02-13T10:28:25.292Z,8.40
2018-02-13T10:30:51.520Z,8.40
2018-02-13T10:33:17.763Z,8.50
2018-02-13T10:35:44.024Z,8.60
2018-02-13T10:38:14.580Z,8.80
2018-02-13T10:40:40.821Z,8.80
2018-02-13T10:43:07.068Z,8.90
2018-02-13T10:45:33.285Z,8.30
2018-02-13T10:47:59.574Z,8.40
2018-02-13T10:50:25.790Z,8.40
2018-02-13T10:52:52.036Z,8.60
2018-02-13T10:55:21.652Z,9.10
2018-02-13T10:57:47.917Z,9.40
2018-02-13T11:00:14.189Z,9.30
2018-02-13T11:02:41.172Z,9.30
2018-02-13T11:05:07.422Z,9.30
2018-02-13T11:07:33.660Z,9.40
2018-02-13T11:09:59.880Z,9.00
2018-02-13T11:12:29.255Z,9.10
2018-02-13T11:14:55.485Z,9.10
2018-02-13T11:17:21.757Z,9.10
2018-02-13T11:19:47.989Z,8.80
2018-02-13T11:22:14.255Z,8.70
2018-02-13T11:24:40.516Z,8.30
2018-02-13T11:27:06.816Z,8.00
2018-02-13T11:29:33.088Z,8.30
2018-02-13T11:32:01.073Z,8.50
2018-02-13T11:34:27.258Z,8.50
2018-02-13T11:36:53.592Z,8.60
2018-02-13T11:39:19.951Z,9.20
2018-02-13T11:41:46.940Z,8.40
2018-02-13T11:44:13.963Z,8.40
2018-02-13T11:46:40.253Z,8.40
2018-02-13T11:49:06.526Z,8.40
2018-02-13T11:51:34.505Z,8.30
2018-02-13T11:54:01.503Z,8.30
2018-02-13T11:56:27.752Z,8.30
2018-02-13T11:58:53.989Z,8.30
2018-02-13T12:01:20.969Z,8.70
2018-02-13T12:03:47.414Z,9.00
2018-02-13T12:06:13.874Z,9.20
2018-02-13T12:08:43.695Z,9.30
2018-02-13T12:11:09.914Z,9.30
2018-02-13T12:13:36.898Z,9.20
2018-02-13T12:16:03.151Z,9.20
2018-02-13T12:18:29.476Z,9.40
2018-02-13T12:20:55.734Z,9.10
2018-02-13T12:23:21.980Z,9.30
2018-02-13T12:25:50.312Z,9.20
2018-02-13T12:28:17.481Z,9.10
2018-02-13T12:30:44.477Z,9.30
2018-02-13T12:33:10.741Z,9.30
2018-02-13T12:35:37.085Z,9.60
2018-02-13T12:38:03.326Z,9.70
2018-02-13T12:43:01.004Z,9.80
2018-02-13T12:45:27.311Z,10.10
2018-02-13T12:47:53.580Z,10.00
2018-02-13T12:50:20.571Z,9.80
2018-02-13T12:52:46.832Z,9.80
2018-02-13T12:55:13.124Z,9.60
2018-02-13T12:57:40.144Z,9.70
2018-02-13T13:00:12.605Z,9.70
2018-02-13T13:02:38.872Z,9.60
2018-02-13T13:05:05.256Z,9.40
2018-02-13T13:07:31.579Z,9.20
2018-02-13T13:09:57.811Z,9.50
2018-02-13T13:12:24.042Z,9.00
2018-02-13T13:14:50.272Z,8.90
2018-02-13T13:17:16.601Z,8.70
2018-02-13T13:19:45.697Z,8.30
2018-02-13T13:22:16.016Z,7.90
2018-02-13T13:24:42.260Z,7.80
2018-02-13T13:27:10.249Z,7.40
2018-02-13T13:29:36.523Z,7.40
2018-02-13T13:32:03.594Z,7.50
2018-02-13T13:34:30.585Z,8.00
2018-02-13T13:37:00.502Z,8.00
2018-02-13T13:39:26.790Z,8.60
2018-02-13T13:41:53.013Z,9.00
2018-02-13T13:44:19.249Z,8.90
2018-02-13T13:46:45.638Z,9.00
2018-02-13T13:49:11.958Z,8.40
2018-02-13T13:51:38.013Z,8.50
2018-02-13T13:54:04.847Z,9.00
2018-02-13T13:56:33.107Z,8.60
2018-02-13T13:58:59.995Z,9.10
2018-02-13T14:01:26.056Z,9.20
2018-02-13T14:03:52.116Z,9.50
2018-02-13T14:06:18.275Z,9.50
2018-02-13T14:08:44.325Z,9.70
2018-02-13T14:11:11.115Z,9.60
2018-02-13T14:13:37.185Z,9.70
2018-02-13T14:16:05.780Z,9.40
2018-02-13T14:18:31.840Z,7.70
2018-02-13T14:20:57.892Z,8.10
2018-02-13T14:23:23.931Z,7.90
2018-02-13T14:25:49.968Z,8.10
2018-02-13T14:28:16.130Z,8.40
2018-02-13T14:30:42.172Z,8.60
2018-02-13T14:33:08.962Z,8.60
2018-02-13T14:35:35.060Z,8.60
2018-02-13T14:38:02.491Z,8.90
2018-02-13T14:40:28.549Z,9.10
2018-02-13T14:42:54.599Z,9.10
2018-02-13T14:45:20.644Z,8.90
2018-02-13T14:47:47.419Z,8.80
2018-02-13T14:50:13.452Z,8.80
2018-02-13T14:52:39.812Z,9.10
2018-02-13T14:55:05.940Z,8.80
2018-02-13T14:57:33.043Z,9.10
2018-02-13T15:00:00.851Z,8.80
2018-02-13T15:02:26.904Z,8.50
2018-02-13T15:04:53.048Z,8.40
2018-02-13T15:07:19.084Z,8.30
2018-02-13T15:09:45.218Z,7.90
2018-02-13T15:12:11.301Z,7.70
2018-02-13T15:14:38.114Z,7.10
2018-02-13T15:20:09.449Z,6.80
2018-02-13T15:22:36.892Z,6.60
2018-02-13T15:25:02.936Z,6.50
2018-02-13T15:27:28.987Z,6.00
2018-02-13T15:29:55.868Z,6.20
2018-02-13T15:32:26.048Z,6.20
2018-02-13T15:34:52.142Z,6.20
2018-02-13T15:37:18.936Z,6.20
2018-02-13T15:39:44.995Z,6.10
2018-02-13T15:42:11.036Z,6.10
2018-02-13T15:44:37.142Z,6.10
2018-02-13T15:47:05.271Z,6.00
2018-02-13T15:49:32.081Z,5.90
2018-02-13T15:51:58.270Z,5.90
2018-02-13T15:54:25.218Z,5.90
2018-02-13T15:56:51.449Z,6.00
2018-02-13T15:59:17.617Z,5.90
2018-02-13T16:01:44.400Z,5.70
2018-02-13T16:04:10.440Z,5.60
2018-02-13T16:06:36.608Z,5.70
2018-02-13T16:09:03.439Z,5.50
2018-02-13T16:11:29.527Z,5.50
2018-02-13T16:13:56.336Z,5.40
2018-02-13T16:16:22.371Z,5.50
2018-02-13T16:18:48.429Z,5.60
2018-02-13T16:21:14.512Z,5.60
2018-02-13T16:23:40.644Z,5.20
2018-02-13T16:26:10.776Z,5.30
2018-02-13T16:28:37.643Z,5.20
2018-02-13T16:31:04.445Z,5.20
2018-02-13T16:33:30.497Z,5.20
2018-02-13T16:35:56.556Z,5.30
2018-02-13T16:38:22.596Z,5.30
2018-02-13T16:40:49.389Z,5.10
2018-02-13T16:43:18.860Z,5.10
2018-02-13T16:45:44.913Z,5.10
2018-02-13T16:48:11.924Z,5.20
2018-02-13T16:50:39.036Z,5.10
2018-02-13T16:53:05.277Z,5.10
2018-02-13T16:55:31.521Z,5.20
2018-02-13T16:57:59.580Z,5.10
2018-02-13T17:00:26.140Z,5.10
2018-02-13T17:02:52.376Z,5.10
2018-02-13T17:05:19.516Z,5.00
2018-02-13T17:07:45.758Z,5.00
2018-02-13T17:10:12.222Z,5.00
2018-02-13T17:12:39.372Z,4.70
2018-02-13T17:15:09.856Z,4.70
2018-02-13T17:17:39.878Z,4.60
2018-02-13T17:20:06.134Z,4.50
2018-02-13T17:22:32.770Z,4.50
2018-02-13T17:24:59.131Z,4.50
2018-02-13T17:27:25.476Z,4.50
2018-02-13T17:29:52.490Z,4.40
2018-02-13T17:32:18.744Z,4.40
2018-02-13T17:34:45.278Z,4.50
2018-02-13T17:37:11.584Z,4.30
2018-02-13T17:39:37.880Z,3.80
2018-02-13T17:42:04.738Z,4.60
2018-02-13T17:44:31.249Z,4.70
2018-02-13T17:46:57.672Z,4.50
2018-02-13T17:49:26.922Z,4.30
2018-02-13T17:51:53.083Z,4.20
2018-02-13T17:54:19.359Z,4.20
2018-02-13T17:56:45.612Z,4.10
2018-02-13T17:59:12.651Z,4.20
2018-02-13T18:01:39.024Z,4.40
2018-02-13T18:04:06.031Z,4.10
2018-02-13T18:06:36.311Z,4.10
2018-02-13T18:09:02.357Z,4.20
2018-02-13T18:11:28.388Z,4.20
2018-02-13T18:13:54.413Z,3.60
2018-02-13T18:16:20.456Z,3.90
2018-02-13T18:18:46.504Z,4.00
2018-02-13T18:21:12.556Z,4.00
2018-02-13T18:23:38.601Z,3.70
2018-02-13T18:26:07.061Z,3.70
2018-02-13T18:28:33.096Z,3.70
2018-02-13T18:30:59.142Z,4.20
2018-02-13T18:33:25.172Z,4.10
2018-02-13T18:35:51.256Z,3.80
2018-02-13T18:38:17.292Z,3.80
2018-02-13T18:40:43.315Z,3.70
2018-02-13T18:43:09.351Z,3.70
2018-02-13T18:45:38.876Z,3.70
2018-02-13T18:48:04.984Z,3.70
2018-02-13T18:50:31.254Z,3.60
2018-02-13T18:55:23.916Z,3.60
2018-02-13T18:57:50.192Z,3.50
2018-02-13T19:00:16.440Z,3.40
2018-02-13T19:02:42.667Z,3.40
2018-02-13T19:05:13.668Z,3.40
2018-02-13T19:07:40.036Z,3.30
2018-02-13T19:10:07.075Z,3.40
2018-02-13T19:12:33.396Z,3.40
2018-02-13T19:15:00.536Z,3.40
2018-02-13T19:17:26.757Z,3.40
2018-02-13T19:19:53.040Z,3.30
2018-02-13T19:22:19.243Z,3.40
2018-02-13T19:24:49.728Z,3.40
2018-02-13T19:27:15.975Z,3.30
2018-02-13T19:29:42.223Z,3.20
2018-02-13T19:34:47.062Z,3.20
2018-02-13T19:37:13.316Z,3.10
2018-02-13T19:39:39.679Z,3.00
2018-02-13T19:42:08.266Z,2.90
2018-02-13T19:44:35.249Z,2.90
2018-02-13T19:47:01.888Z,2.80
2018-02-13T19:49:28.164Z,3.00
2018-02-13T19:51:54.392Z,2.90
2018-02-13T19:54:20.632Z,2.90
2018-02-13T19:56:47.625Z,3.00
2018-02-13T19:59:13.843Z,2.60
2018-02-13T20:01:40.115Z,2.80
2018-02-13T20:04:06.372Z,2.90
2018-02-13T20:06:33.393Z,2.80
2018-02-13T20:08:59.650Z,2.80
2018-02-13T20:11:26.617Z,2.70
2018-02-13T20:13:52.861Z,2.70
2018-02-13T20:16:19.145Z,2.60
2018-02-13T20:18:45.409Z,2.60
2018-02-13T20:21:14.880Z,2.50
2018-02-13T20:23:41.135Z,2.50
2018-02-13T20:26:08.088Z,2.40
2018-02-13T20:28:36.789Z,2.00
2018-02-13T20:31:03.051Z,2.10
2018-02-13T20:33:30.049Z,1.80
2018-02-13T20:35:57.057Z,1.90
2018-02-13T20:38:23.397Z,1.90
2018-02-13T20:40:49.808Z,1.80
2018-02-13T20:43:22.783Z,1.80
2018-02-13T20:45:49.032Z,1.80
2018-02-13T20:48:15.381Z,1.70
2018-02-13T20:50:41.658Z,1.70
2018-02-13T20:53:08.016Z,1.60
2018-02-13T20:55:34.291Z,1.50
2018-02-13T20:58:00.570Z,1.70
2018-02-13T21:00:28.593Z,1.30
2018-02-13T21:02:55.690Z,1.30
2018-02-13T21:05:23.392Z,1.30
2018-02-13T21:07:49.658Z,1.50
2018-02-13T21:10:15.976Z,1.50
2018-02-13T21:12:45.519Z,1.20
2018-02-13T21:15:12.402Z,1.40
2018-02-13T21:17:42.765Z,1.50
2018-02-13T21:20:09.041Z,1.40
2018-02-13T21:22:35.305Z,1.40
2018-02-13T21:25:01.588Z,1.80
2018-02-13T21:27:27.837Z,1.30
2018-02-13T21:29:54.070Z,1.70
2018-02-13T21:32:20.333Z,1.40
2018-02-13T21:34:46.614Z,1.40
2018-02-13T21:37:14.694Z,1.20
2018-02-13T21:39:40.972Z,1.20
2018-02-13T21:42:07.261Z,1.20
2018-02-13T21:44:33.560Z,1.30
2018-02-13T21:46:59.826Z,1.20
2018-02-13T21:49:26.096Z,1.00
2018-02-13T21:51:52.395Z,1.00
2018-02-13T21:54:22.719Z,0.70
2018-02-13T21:56:48.952Z,0.50
2018-02-13T21:59:15.204Z,0.60
2018-02-13T22:01:41.556Z,0.60
2018-02-13T22:04:07.808Z,0.40
2018-02-13T22:06:34.126Z,0.50
2018-02-13T22:09:01.152Z,1.00
2018-02-13T22:11:27.417Z,1.00
2018-02-13T22:13:54.417Z,1.30
2018-02-13T22:16:20.684Z,1.30
2018-02-13T22:18:50.260Z,1.60
2018-02-13T22:21:16.516Z,2.00
2018-02-13T22:23:43.575Z,1.70
2018-02-13T22:26:09.834Z,1.70
2018-02-13T22:28:36.880Z,1.70
2018-02-13T22:31:03.114Z,1.50
2018-02-13T22:33:29.400Z,1.90
2018-02-13T22:35:55.632Z,2.00
2018-02-13T22:38:22.626Z,1.80
2018-02-13T22:40:48.906Z,1.80
2018-02-13T22:43:15.169Z,2.00
2018-02-13T22:45:41.481Z,2.10
2018-02-13T22:48:07.770Z,2.00
2018-02-13T22:50:34.044Z,2.00
2018-02-13T22:53:00.616Z,2.10
2018-02-13T22:55:26.947Z,2.20
2018-02-13T22:57:53.242Z,2.00
2018-02-13T23:00:20.300Z,2.10
2018-02-13T23:02:46.613Z,2.10
2018-02-13T23:05:12.864Z,2.00
2018-02-13T23:07:40.288Z,2.00
2018-02-13T23:10:06.592Z,1.80
2018-02-13T23:12:32.849Z,2.20
2018-02-13T23:14:59.108Z,1.70
2018-02-13T23:17:25.440Z,1.70
2018-02-13T23:19:51.802Z,1.40
2018-02-13T23:22:18.105Z,1.70
2018-02-13T23:24:45.200Z,1.60
2018-02-13T23:27:11.641Z,1.60
2018-02-13T23:29:37.905Z,1.60
2018-02-13T23:32:04.164Z,1.70
2018-02-13T23:34:30.400Z,1.80
2018-02-13T23:36:56.680Z,1.40
2018-02-13T23:39:22.957Z,1.80
2018-02-13T23:41:49.251Z,1.70
2018-02-13T23:44:15.510Z,1.80
2018-02-13T23:46:43.153Z,1.90
2018-02-13T23:49:09.389Z,1.80
2018-02-13T23:51:35.659Z,1.70
2018-02-13T23:54:01.954Z,1.70
2018-02-13T23:56:28.201Z,1.50
2018-02-13T23:58:54.478Z,1.70
